createdAt,value
2022-10-16T00:01:00.311Z,100206.63
2022-10-16T00:03:30.371Z,100196.56
2022-10-16T00:06:01.231Z,100207.31
2022-10-16T00:08:29.804Z,100204.78
2022-10-16T00:11:04.235Z,100199.13
2022-10-16T00:13:33.124Z,100201.09
2022-10-16T00:16:02.266Z,100197.41
2022-10-16T00:18:31.059Z,100184.09
2022-10-16T00:21:04.767Z,100186.66
2022-10-16T00:23:33.065Z,100186.66
2022-10-16T00:26:06.455Z,100179.28
2022-10-16T00:28:34.958Z,100174.34
2022-10-16T00:31:06.421Z,100173.78
2022-10-16T00:33:34.493Z,100173.03
2022-10-16T00:36:02.949Z,100183.81
2022-10-16T00:38:30.957Z,100180.13
2022-10-16T00:40:59.126Z,100181.97
2022-10-16T00:43:41.729Z,100175.63
2022-10-16T00:46:17.065Z,100172.91
2022-10-16T00:48:50.780Z,100177.28
2022-10-16T00:51:21.497Z,100180.28
2022-10-16T00:53:50.282Z,100183.50
2022-10-16T00:56:19.435Z,100181.84
2022-10-16T00:58:48.993Z,100182.66
2022-10-16T01:01:16.977Z,100170.22
2022-10-16T01:03:44.950Z,100174.59
2022-10-16T01:09:15.143Z,100172.63
2022-10-16T01:11:50.988Z,100179.00
2022-10-16T01:14:26.304Z,100168.41
2022-10-16T01:17:01.223Z,100159.19
2022-10-16T01:19:46.383Z,100161.88
2022-10-16T01:22:15.937Z,100170.91
2022-10-16T01:27:26.203Z,100190.91
2022-10-16T01:29:58.190Z,100199.53
2022-10-16T01:32:32.460Z,100198.53
2022-10-16T01:35:07.211Z,100185.22
2022-10-16T01:37:40.665Z,100192.28
2022-10-16T01:40:12.387Z,100190.44
2022-10-16T01:42:45.263Z,100194.84
2022-10-16T01:45:19.093Z,100190.72
2022-10-16T01:47:48.967Z,100195.81
2022-10-16T01:50:20.080Z,100189.47
2022-10-16T01:52:53.304Z,100185.91
2022-10-16T01:55:26.487Z,100182.09
2022-10-16T01:57:57.105Z,100174.47
2022-10-16T02:00:26.776Z,100172.31
2022-10-16T02:02:57.290Z,100170.47
2022-10-16T02:05:33.206Z,100167.66
2022-10-16T02:08:04.674Z,100176.00
2022-10-16T02:10:34.282Z,100174.03
2022-10-16T02:13:08.344Z,100174.72
2022-10-16T02:15:36.333Z,100161.56
2022-10-16T02:18:04.838Z,100167.66
2022-10-16T02:20:39.012Z,100159.19
2022-10-16T02:23:11.753Z,100174.03
2022-10-16T02:25:43.756Z,100173.03
2022-10-16T02:28:19.959Z,100204.59
2022-10-16T02:30:53.288Z,100195.81
2022-10-16T02:33:23.930Z,100196.00
2022-10-16T02:35:53.260Z,100202.34
2022-10-16T02:38:23.282Z,100208.00
2022-10-16T02:40:51.655Z,100194.72
2022-10-16T02:43:21.415Z,100189.47
2022-10-16T02:45:49.294Z,100186.25
2022-10-16T02:48:17.253Z,100188.25
2022-10-16T02:50:45.122Z,100185.56
2022-10-16T02:53:13.116Z,100175.94
2022-10-16T02:55:41.033Z,100168.00
2022-10-16T02:58:08.926Z,100169.13
2022-10-16T03:00:38.178Z,100169.13
2022-10-16T03:03:06.229Z,100160.38
2022-10-16T03:05:34.097Z,100169.53
2022-10-16T03:08:02.118Z,100172.34
2022-10-16T03:10:30.108Z,100171.66
2022-10-16T03:12:58.014Z,100166.44
2022-10-16T03:15:26.922Z,100158.50
2022-10-16T03:17:56.297Z,100154.44
2022-10-16T03:20:24.181Z,100151.47
2022-10-16T03:22:52.205Z,100152.59
2022-10-16T03:25:20.382Z,100153.56
2022-10-16T03:27:48.293Z,100146.81
2022-10-16T03:30:16.397Z,100163.75
2022-10-16T03:32:45.556Z,100161.91
2022-10-16T03:35:14.985Z,100154.88
2022-10-16T03:37:42.896Z,100148.75
2022-10-16T03:40:11.553Z,100151.44
2022-10-16T03:42:39.413Z,100153.44
2022-10-16T03:45:08.333Z,100145.38
2022-10-16T03:47:36.209Z,100143.69
2022-10-16T03:50:04.961Z,100145.66
2022-10-16T03:52:34.240Z,100144.69
2022-10-16T03:55:02.145Z,100150.22
2022-10-16T03:57:30.256Z,100152.19
2022-10-16T03:59:58.287Z,100154.88
2022-10-16T04:02:26.162Z,100142.56
2022-10-16T04:04:54.044Z,100147.94
2022-10-16T04:07:21.942Z,100151.63
2022-10-16T04:09:53.107Z,100146.25
2022-10-16T04:12:21.034Z,100138.31
2022-10-16T04:14:48.899Z,100135.78
2022-10-16T04:17:16.846Z,100139.47
2022-10-16T04:19:44.718Z,100144.84
2022-10-16T04:22:13.782Z,100135.09
2022-10-16T04:24:42.116Z,100133.38
2022-10-16T04:27:11.576Z,100138.75
2022-10-16T04:29:39.484Z,100147.97
2022-10-16T04:32:07.441Z,100162.38
2022-10-16T04:34:35.617Z,100166.94
2022-10-16T04:37:03.585Z,100158.00
2022-10-16T04:39:31.437Z,100155.44
2022-10-16T04:41:59.419Z,100156.47
2022-10-16T04:44:28.675Z,100153.78
2022-10-16T04:46:56.621Z,100153.91
2022-10-16T04:49:24.529Z,100155.88
2022-10-16T04:51:52.829Z,100149.66
2022-10-16T04:54:20.730Z,100147.81
2022-10-16T04:56:48.962Z,100143.44
2022-10-16T04:59:17.034Z,100148.09
2022-10-16T05:01:47.144Z,100127.47
2022-10-16T05:04:16.032Z,100137.22
2022-10-16T05:06:44.456Z,100140.03
2022-10-16T05:09:12.408Z,100156.16
2022-10-16T05:11:40.357Z,100151.81
2022-10-16T05:14:08.309Z,100155.63
2022-10-16T05:16:36.350Z,100159.97
2022-10-16T05:19:26.341Z,100161.00
2022-10-16T05:21:53.460Z,100146.84
2022-10-16T05:24:21.324Z,100154.88
2022-10-16T05:26:49.276Z,100138.94
2022-10-16T05:29:17.232Z,100141.47
2022-10-16T05:31:45.246Z,100142.59
2022-10-16T05:34:14.737Z,100140.63
2022-10-16T05:36:42.606Z,100143.44
2022-10-16T05:39:10.496Z,100151.66
2022-10-16T05:41:38.371Z,100155.19
2022-10-16T05:44:07.587Z,100160.69
2022-10-16T05:46:35.684Z,100157.16
2022-10-16T05:49:03.822Z,100166.22
2022-10-16T05:51:33.452Z,100168.75
2022-10-16T05:54:01.376Z,100171.59
2022-10-16T05:56:29.236Z,100172.56
2022-10-16T05:58:57.175Z,100168.19
2022-10-16T06:01:25.388Z,100166.50
2022-10-16T06:03:54.379Z,100170.16
2022-10-16T06:06:25.059Z,100168.63
2022-10-16T06:08:55.434Z,100185.31
2022-10-16T06:11:25.424Z,100181.78
2022-10-16T06:13:54.502Z,100178.22
2022-10-16T06:16:22.704Z,100190.97
2022-10-16T06:18:53.181Z,100192.66
2022-10-16T06:21:23.233Z,100189.41
2022-10-16T06:23:51.127Z,100187.00
2022-10-16T06:26:22.136Z,100211.47
2022-10-16T06:28:50.252Z,100212.59
2022-10-16T06:31:19.229Z,100206.22
2022-10-16T06:33:47.994Z,100210.88
2022-10-16T06:36:18.212Z,100211.75
2022-10-16T06:38:46.898Z,100210.72
2022-10-16T06:41:17.385Z,100227.00
2022-10-16T06:43:47.107Z,100214.44
2022-10-16T06:46:17.861Z,100227.00
2022-10-16T06:48:46.045Z,100225.44
2022-10-16T06:51:15.805Z,100231.66
2022-10-16T06:54:01.943Z,100220.94
2022-10-16T06:56:32.728Z,100224.59
2022-10-16T06:59:02.497Z,100229.00
2022-10-16T07:01:31.584Z,100229.00
2022-10-16T07:03:59.608Z,100228.13
2022-10-16T07:06:28.713Z,100226.53
2022-10-16T07:08:56.672Z,100229.97
2022-10-16T07:11:25.951Z,100223.72
2022-10-16T07:13:56.159Z,100230.13
2022-10-16T07:16:27.164Z,100222.91
2022-10-16T07:18:59.564Z,100230.19
2022-10-16T07:21:29.942Z,100230.19
2022-10-16T07:23:59.623Z,100224.84
2022-10-16T07:26:28.716Z,100232.88
2022-10-16T07:28:56.741Z,100230.34
2022-10-16T07:31:26.902Z,100229.34
2022-10-16T07:33:55.880Z,100236.56
2022-10-16T07:36:23.949Z,100233.03
2022-10-16T07:38:54.196Z,100232.19
2022-10-16T07:41:25.107Z,100233.91
2022-10-16T07:43:55.407Z,100239.25
2022-10-16T07:46:24.852Z,100223.84
2022-10-16T07:48:54.411Z,100239.38
2022-10-16T07:51:25.431Z,100230.91
2022-10-16T07:53:54.281Z,100243.78
2022-10-16T07:56:23.324Z,100240.94
2022-10-16T07:58:52.051Z,100246.31
2022-10-16T08:01:20.804Z,100236.44
2022-10-16T08:03:51.286Z,100244.47
2022-10-16T08:06:26.666Z,100243.53
2022-10-16T08:08:56.436Z,100239.25
2022-10-16T08:11:24.442Z,100247.16
2022-10-16T08:13:52.369Z,100249.00
2022-10-16T08:16:20.261Z,100245.47
2022-10-16T08:18:48.472Z,100221.44
2022-10-16T08:21:20.332Z,100255.22
2022-10-16T08:23:54.985Z,100253.41
2022-10-16T08:26:27.941Z,100254.38
2022-10-16T08:28:56.185Z,100257.91
2022-10-16T08:31:24.667Z,100230.47
2022-10-16T08:33:53.399Z,100253.50
2022-10-16T08:36:21.561Z,100248.03
2022-10-16T08:38:54.513Z,100255.22
2022-10-16T08:41:35.809Z,100257.81
2022-10-16T08:44:26.866Z,100264.03
2022-10-16T08:47:04.948Z,100260.59
2022-10-16T08:49:33.549Z,100260.59
2022-10-16T08:52:01.989Z,100268.66
2022-10-16T08:54:38.594Z,100267.72
2022-10-16T08:57:13.434Z,100270.41
2022-10-16T08:59:41.393Z,100264.25
2022-10-16T09:02:26.798Z,100256.81
2022-10-16T09:05:23.748Z,100266.72
2022-10-16T09:10:43.565Z,100268.56
2022-10-16T09:13:21.278Z,100266.94
2022-10-16T09:15:58.131Z,100272.31
2022-10-16T09:18:32.991Z,100276.63
2022-10-16T09:21:09.555Z,100267.56
2022-10-16T09:23:39.389Z,100267.44
2022-10-16T09:26:13.598Z,100261.78
2022-10-16T09:28:41.978Z,100267.88
2022-10-16T09:31:17.485Z,100265.03
2022-10-16T09:33:47.418Z,100265.75
2022-10-16T09:36:15.549Z,100272.66
2022-10-16T09:38:43.580Z,100270.72
2022-10-16T09:41:21.058Z,100274.97
2022-10-16T09:43:54.184Z,100274.09
2022-10-16T09:46:29.823Z,100272.81
2022-10-16T09:48:59.788Z,100266.59
2022-10-16T09:51:30.665Z,100269.16
2022-10-16T09:54:01.844Z,100268.16
2022-10-16T09:56:33.473Z,100268.88
2022-10-16T09:59:03.273Z,100260.25
2022-10-16T10:01:38.530Z,100259.81
2022-10-16T10:04:07.272Z,100259.81
2022-10-16T10:06:39.043Z,100269.59
2022-10-16T10:09:16.593Z,100262.50
2022-10-16T10:11:50.142Z,100270.44
2022-10-16T10:14:25.061Z,100266.75
2022-10-16T10:16:54.617Z,100267.75
2022-10-16T10:19:26.133Z,100275.81
2022-10-16T10:21:55.946Z,100274.97
2022-10-16T10:24:23.804Z,100271.00
2022-10-16T10:27:01.718Z,100279.22
2022-10-16T10:29:49.308Z,100277.50
2022-10-16T10:32:31.247Z,100272.97
2022-10-16T10:35:15.570Z,100277.50
2022-10-16T10:37:59.290Z,100272.28
2022-10-16T10:40:42.002Z,100281.19
2022-10-16T10:43:24.419Z,100273.97
2022-10-16T10:45:58.153Z,100271.28
2022-10-16T10:48:49.464Z,100264.91
2022-10-16T10:51:27.112Z,100267.59
2022-10-16T10:54:05.347Z,100270.16
2022-10-16T10:56:47.103Z,100254.88
2022-10-16T11:00:02.590Z,100252.34
2022-10-16T11:02:38.141Z,100247.81
2022-10-16T11:05:33.238Z,100251.38
2022-10-16T11:08:04.328Z,100242.56
2022-10-16T11:10:40.385Z,100248.69
2022-10-16T11:13:20.925Z,100244.13
2022-10-16T11:15:52.937Z,100240.63
2022-10-16T11:18:23.634Z,100242.28
2022-10-16T11:20:55.596Z,100238.75
2022-10-16T11:23:27.092Z,100231.81
2022-10-16T11:25:58.883Z,100231.69
2022-10-16T11:28:32.166Z,100237.06
2022-10-16T11:31:05.792Z,100234.50
2022-10-16T11:33:41.974Z,100219.78
2022-10-16T11:36:16.330Z,100231.69
2022-10-16T11:38:52.046Z,100212.47
2022-10-16T11:41:26.818Z,100220.94
2022-10-16T11:44:06.236Z,100226.44
2022-10-16T11:46:58.331Z,100211.34
2022-10-16T11:49:32.903Z,100207.78
2022-10-16T11:54:49.672Z,100201.72
2022-10-16T11:57:30.209Z,100201.41
2022-10-16T12:00:02.821Z,100195.34
2022-10-16T12:02:53.058Z,100188.97
2022-10-16T12:05:27.133Z,100172.56
2022-10-16T12:08:06.236Z,100175.56
2022-10-16T12:13:30.157Z,100167.75
2022-10-16T12:16:21.342Z,100169.47
2022-10-16T12:18:51.094Z,100118.69
2022-10-16T12:21:20.293Z,100168.75
2022-10-16T12:23:52.993Z,100161.53
2022-10-16T12:26:28.817Z,100154.50
2022-10-16T12:28:57.901Z,100151.94
2022-10-16T12:31:54.567Z,100152.78
2022-10-16T12:34:32.005Z,100158.31
2022-10-16T12:37:12.218Z,100160.16
2022-10-16T12:39:40.642Z,100150.53
2022-10-16T12:42:23.671Z,100151.22
2022-10-16T12:44:52.049Z,100117.84
2022-10-16T12:47:25.685Z,100132.69
2022-10-16T12:49:56.596Z,100126.63
2022-10-16T12:52:38.097Z,100121.25
2022-10-16T12:55:08.311Z,100117.03
2022-10-16T12:57:48.572Z,100107.13
2022-10-16T13:00:27.400Z,100101.88
2022-10-16T13:03:26.829Z,100108.38
2022-10-16T13:06:10.113Z,100097.81
2022-10-16T13:08:56.443Z,100098.66
2022-10-16T13:11:39.176Z,100095.97
2022-10-16T13:14:22.775Z,100076.16
2022-10-16T13:16:59.866Z,100081.53
2022-10-16T13:19:36.548Z,100092.16
2022-10-16T13:22:16.996Z,100086.78
2022-10-16T13:24:57.762Z,100074.47
2022-10-16T13:27:36.497Z,100083.22
2022-10-16T13:30:14.325Z,100080.56
2022-10-16T13:32:42.666Z,100074.31
2022-10-16T13:35:22.078Z,100070.66
2022-10-16T13:37:51.802Z,100060.91
2022-10-16T13:40:25.981Z,100050.00
2022-10-16T13:42:55.274Z,100045.63
2022-10-16T13:45:26.176Z,100041.53
2022-10-16T13:48:04.315Z,100103.72
2022-10-16T13:50:32.221Z,100130.88
2022-10-16T13:53:08.737Z,100053.97
2022-10-16T13:55:36.685Z,100093.41
2022-10-16T13:58:09.747Z,100113.22
2022-10-16T14:03:09.936Z,100101.19
2022-10-16T14:05:37.874Z,100095.91
2022-10-16T14:08:06.710Z,100098.59
2022-10-16T14:10:36.068Z,100093.38
2022-10-16T14:13:07.289Z,100095.38
2022-10-16T14:15:38.904Z,100082.22
2022-10-16T14:18:07.199Z,100086.59
2022-10-16T14:20:36.488Z,100075.16
2022-10-16T14:23:06.810Z,100073.31
2022-10-16T14:25:36.205Z,100075.16
2022-10-16T14:28:06.843Z,100066.13
2022-10-16T14:30:37.209Z,100069.78
2022-10-16T14:33:06.832Z,100073.31
2022-10-16T14:35:36.696Z,100083.19
2022-10-16T14:38:07.149Z,100077.13
2022-10-16T14:40:39.044Z,100071.06
2022-10-16T14:43:07.556Z,100073.06
2022-10-16T14:45:37.616Z,100064.25
2022-10-16T14:48:08.406Z,100053.53
2022-10-16T14:50:36.347Z,100068.66
2022-10-16T14:53:04.269Z,100057.22
2022-10-16T14:55:32.201Z,100037.69
2022-10-16T14:58:01.603Z,100049.88
2022-10-16T15:00:29.584Z,100046.47
2022-10-16T15:02:57.604Z,100050.31
2022-10-16T15:05:27.907Z,100049.88
2022-10-16T15:07:56.918Z,100038.28
2022-10-16T15:10:26.543Z,100034.63
2022-10-16T15:12:54.624Z,100043.38
2022-10-16T15:15:44.033Z,100088.84
2022-10-16T15:18:12.677Z,100107.81
2022-10-16T15:20:41.593Z,100128.44
2022-10-16T15:23:16.327Z,100129.97
2022-10-16T15:25:46.452Z,100110.34
2022-10-16T15:28:15.865Z,100140.03
2022-10-16T15:30:46.547Z,100137.34
2022-10-16T15:33:17.228Z,100135.50
2022-10-16T15:35:48.006Z,100102.59
2022-10-16T15:38:17.008Z,100103.28
2022-10-16T15:40:45.104Z,100079.41
2022-10-16T15:43:13.041Z,100090.13
2022-10-16T15:45:41.169Z,100109.78
2022-10-16T15:48:13.353Z,100110.91
2022-10-16T15:53:16.240Z,100117.84
2022-10-16T15:55:44.133Z,100107.22
2022-10-16T15:58:12.063Z,100100.31
2022-10-16T16:00:39.980Z,100112.59
2022-10-16T16:03:08.048Z,100110.91
2022-10-16T16:05:45.531Z,100097.78
2022-10-16T16:08:14.524Z,100117.09
2022-10-16T16:10:42.450Z,100125.31
2022-10-16T16:13:10.382Z,100114.56
2022-10-16T16:15:41.352Z,100110.66
2022-10-16T16:18:10.699Z,100114.31
2022-10-16T16:20:40.199Z,100098.03
2022-10-16T16:23:08.123Z,100087.28
2022-10-16T16:25:36.074Z,100063.13
2022-10-16T16:28:04.067Z,100066.69
2022-10-16T16:30:31.923Z,100045.91
2022-10-16T16:32:59.832Z,100042.50
2022-10-16T16:35:27.696Z,100038.84
2022-10-16T16:37:57.019Z,100039.53
2022-10-16T16:40:24.898Z,100021.03
2022-10-16T16:42:52.809Z,100042.38
2022-10-16T16:45:20.793Z,100052.97
2022-10-16T16:47:48.851Z,100060.88
2022-10-16T16:50:17.071Z,100057.34
2022-10-16T16:52:45.072Z,100065.25
2022-10-16T16:55:14.372Z,100057.19
2022-10-16T16:57:42.386Z,100068.91
2022-10-16T17:00:11.553Z,100079.53
2022-10-16T17:02:44.129Z,100084.06
2022-10-16T17:05:12.772Z,100079.53
2022-10-16T17:07:41.831Z,100076.84
2022-10-16T17:10:10.172Z,100078.53
2022-10-16T17:12:39.890Z,100083.09
2022-10-16T17:15:09.045Z,100084.91
2022-10-16T17:17:37.043Z,100088.56
2022-10-16T17:20:05.350Z,100090.28
2022-10-16T17:22:33.683Z,100088.56
2022-10-16T17:25:04.042Z,100084.06
2022-10-16T17:27:32.044Z,100093.09
2022-10-16T17:30:01.301Z,100098.47
2022-10-16T17:32:29.685Z,100095.66
2022-10-16T17:34:58.187Z,100103.84
2022-10-16T17:37:26.241Z,100092.28
2022-10-16T17:39:54.816Z,100101.00
2022-10-16T17:42:23.063Z,100105.81
2022-10-16T17:44:51.241Z,100101.56
2022-10-16T17:47:20.618Z,100109.19
2022-10-16T17:49:49.552Z,100110.91
2022-10-16T17:52:18.386Z,100116.13
2022-10-16T17:54:47.869Z,100122.34
2022-10-16T17:57:16.140Z,100130.28
2022-10-16T17:59:44.255Z,100133.78
2022-10-16T18:02:13.168Z,100140.88
2022-10-16T18:04:43.389Z,100144.41
2022-10-16T18:07:12.909Z,100137.22
2022-10-16T18:10:09.866Z,100138.88
2022-10-16T18:12:31.405Z,100156.00
2022-10-16T18:14:59.777Z,100140.72
2022-10-16T18:17:30.010Z,100148.78
2022-10-16T18:20:00.649Z,100159.53
2022-10-16T18:22:32.295Z,100173.81
2022-10-16T18:25:06.356Z,100177.34
2022-10-16T18:27:35.803Z,100181.00
2022-10-16T18:30:04.144Z,100187.38
2022-10-16T18:32:34.564Z,100191.91
2022-10-16T18:35:04.008Z,100184.69
2022-10-16T18:37:36.549Z,100192.75
2022-10-16T18:40:07.885Z,100192.88
2022-10-16T18:42:37.977Z,100197.28
2022-10-16T18:45:09.117Z,100199.81
2022-10-16T18:47:37.242Z,100204.47
2022-10-16T18:50:11.147Z,100205.31
2022-10-16T18:52:40.580Z,100198.13
2022-10-16T18:55:12.582Z,100189.06
2022-10-16T18:57:41.412Z,100199.09
2022-10-16T19:00:13.734Z,100190.91
2022-10-16T19:02:42.703Z,100203.63
2022-10-16T19:05:15.612Z,100194.75
2022-10-16T19:07:47.423Z,100204.47
2022-10-16T19:10:18.109Z,100193.72
2022-10-16T19:12:46.533Z,100200.81
2022-10-16T19:15:15.241Z,100221.28
2022-10-16T19:17:43.484Z,100214.09
2022-10-16T19:20:13.731Z,100206.03
2022-10-16T19:22:54.191Z,100222.06
2022-10-16T19:25:23.010Z,100233.75
2022-10-16T19:27:51.738Z,100225.59
2022-10-16T19:30:20.656Z,100239.84
2022-10-16T19:32:49.735Z,100237.28
2022-10-16T19:35:19.829Z,100236.19
2022-10-16T19:37:52.421Z,100242.53
2022-10-16T19:40:20.995Z,100252.31
2022-10-16T19:42:49.425Z,100234.16
2022-10-16T19:45:18.187Z,100250.59
2022-10-16T19:47:47.382Z,100252.44
2022-10-16T19:50:16.557Z,100255.97
2022-10-16T19:52:46.222Z,100266.72
2022-10-16T19:55:14.874Z,100248.72
2022-10-16T19:57:42.841Z,100270.25
2022-10-16T20:00:12.106Z,100266.72
2022-10-16T20:02:40.194Z,100257.69
2022-10-16T20:05:09.000Z,100265.59
2022-10-16T20:07:37.373Z,100260.22
2022-10-16T20:10:08.169Z,100263.63
2022-10-16T20:12:36.076Z,100267.13
2022-10-16T20:15:05.023Z,100267.28
2022-10-16T20:17:32.967Z,100268.84
2022-10-16T20:20:02.829Z,100269.81
2022-10-16T20:22:30.808Z,100271.53
2022-10-16T20:24:58.983Z,100276.91
2022-10-16T20:27:29.556Z,100270.56
2022-10-16T20:29:57.933Z,100282.97
2022-10-16T20:32:25.945Z,100288.34
2022-10-16T20:34:53.953Z,100288.34
2022-10-16T20:37:21.965Z,100290.06
2022-10-16T20:39:49.929Z,100294.59
2022-10-16T20:42:17.825Z,100289.22
2022-10-16T20:44:49.270Z,100305.19
2022-10-16T20:47:19.223Z,100305.19
2022-10-16T20:49:47.084Z,100307.03
2022-10-16T20:52:15.024Z,100305.19
2022-10-16T20:54:46.041Z,100316.50
2022-10-16T20:57:14.305Z,100306.88
2022-10-16T20:59:42.276Z,100316.38
2022-10-16T21:02:14.196Z,100326.13
2022-10-16T21:04:42.481Z,100318.78
2022-10-16T21:07:10.820Z,100328.81
2022-10-16T21:09:39.442Z,100333.91
2022-10-16T21:12:07.377Z,100342.84
2022-10-16T21:14:42.111Z,100349.88
2022-10-16T21:17:11.846Z,100353.44
2022-10-16T21:19:39.724Z,100345.38
2022-10-16T21:22:07.656Z,100344.50
2022-10-16T21:24:36.481Z,100361.38
2022-10-16T21:27:04.703Z,100360.38
2022-10-16T21:29:32.868Z,100358.53
2022-10-16T21:32:00.781Z,100365.75
2022-10-16T21:34:30.273Z,100368.44
2022-10-16T21:36:58.153Z,100373.94
2022-10-16T21:39:26.084Z,100382.13
2022-10-16T21:41:54.009Z,100378.47
2022-10-16T21:44:21.925Z,100380.31
2022-10-16T21:46:51.737Z,100387.50
2022-10-16T21:49:20.565Z,100404.75
2022-10-16T21:51:51.765Z,100406.47
2022-10-16T21:54:22.333Z,100409.41
2022-10-16T21:56:50.869Z,100415.78
2022-10-16T21:59:18.861Z,100418.59
2022-10-16T22:01:46.948Z,100424.81
2022-10-16T22:04:17.161Z,100427.63
2022-10-16T22:06:45.136Z,100433.00
2022-10-16T22:09:16.010Z,100432.19
2022-10-16T22:11:45.679Z,100443.75
2022-10-16T22:14:16.752Z,100433.16
2022-10-16T22:16:45.376Z,100440.50
2022-10-16T22:19:14.118Z,100435.13
2022-10-16T22:21:44.199Z,100436.81
2022-10-16T22:24:12.105Z,100430.88
2022-10-16T22:26:41.784Z,100444.03
2022-10-16T22:29:12.141Z,100454.03
2022-10-16T22:31:40.388Z,100448.81
2022-10-16T22:34:08.351Z,100453.50
2022-10-16T22:36:36.636Z,100459.72
2022-10-16T22:39:05.665Z,100457.28
2022-10-16T22:41:33.604Z,100448.38
2022-10-16T22:44:02.848Z,100465.47
2022-10-16T22:46:32.124Z,100477.94
2022-10-16T22:49:00.099Z,100480.75
2022-10-16T22:51:29.869Z,100479.91
2022-10-16T22:53:59.504Z,100490.66
2022-10-16T22:56:27.770Z,100510.31
2022-10-16T22:58:55.824Z,100500.50
2022-10-16T23:01:28.130Z,100504.56
2022-10-16T23:03:56.206Z,100512.22
2022-10-16T23:06:24.157Z,100517.59
2022-10-16T23:08:53.586Z,100524.06
2022-10-16T23:11:21.622Z,100516.72
2022-10-16T23:13:49.662Z,100528.72
2022-10-16T23:16:20.801Z,100529.69
2022-10-16T23:18:51.020Z,100537.66
2022-10-16T23:21:21.024Z,100545.69
2022-10-16T23:23:49.519Z,100547.53
2022-10-16T23:26:19.731Z,100544.84
2022-10-16T23:28:47.933Z,100548.50
2022-10-16T23:31:16.988Z,100554.88
2022-10-16T23:33:45.933Z,100549.03
2022-10-16T23:36:18.525Z,100562.06
2022-10-16T23:38:47.106Z,100572.09
2022-10-16T23:41:16.012Z,100556.38
2022-10-16T23:43:43.990Z,100573.94
2022-10-16T23:46:13.336Z,100576.75
2022-10-16T23:48:42.174Z,100562.25
2022-10-16T23:51:11.029Z,100584.94
2022-10-16T23:53:40.495Z,100595.66
2022-10-16T23:56:08.769Z,100581.38
2022-10-16T23:58:36.741Z,100579.94
